FlightSource - Aviation Photo Database

World Wide Airport Lookup


Search by ICAO
Or
Search by City

FlightSource.ca - Aviation Photo Database - Safdarjung Airport Information
Airport Identification
Name: Safdarjung Airport
ICAO: VIDD
IATA:
Airport Location
City:
Region: DL
Country: India
Continent: AS
Latitude: 28.5845
Longitude: 77.2058
Airport Information
Type: Medium Airport
Elevation: 705 Feet ASL
Flight Status: VIDD
More Info: VIDD
Airport Weather    
Metar: VIDD 210800Z 14002KT 3000 HZ SCT040 BKN100 34/24 Q1003 NOSIG
TAF:


Advertisement